Time;durP1;ratioP1;P1;durP2;ratioP2;P2;SDS_P1;SDS_P2;PMS_P1;PMS_P2;Temp;Humidity;BMP_temperature;BMP_pressure;BME280_temperature;BME280_humidity;BME280_pressure;Samples;Min_cycle;Max_cycle;Signal;HPM_P1;HPM_P2
2021/12/23 00:00:46;;;;;;;0.30;0.30;;;;;;;;;;4214651;28;20109;-34
2021/12/23 00:02:47;;;;;;;0.43;0.40;;;;;;;;;;4214525;28;20051;-34
2021/12/23 00:04:48;;;;;;;0.82;0.40;;;;;;;;;;4214700;28;20517;-33
2021/12/23 00:06:48;;;;;;;0.32;0.25;;;;;;;;;;4214291;28;20446;-34
2021/12/23 00:08:49;;;;;;;0.30;0.30;;;;;;;;;;4214468;28;20479;-34
2021/12/23 00:10:50;;;;;;;0.30;0.20;;;;;;;;;;4214511;28;20510;-34
2021/12/23 00:12:51;;;;;;;0.10;0.10;;;;;;;;;;4214389;28;20098;-34
2021/12/23 00:14:55;;;;;;;0.40;0.40;;;;;;;;;;4214232;28;20476;-34
2021/12/23 00:17:17;;;;;;;0.45;0.20;;;;;;;;;;4214046;28;20476;-34
2021/12/23 00:23:44;;;;;;;;;;;;;;;;;;4214503;28;20101;-34
2021/12/23 00:25:45;;;;;;;0.22;0.20;;;;;;;;;;4214046;28;19920;-34
2021/12/23 00:27:46;;;;;;;0.25;0.25;;;;;;;;;;4213901;28;20105;-33
2021/12/23 00:29:47;;;;;;;0.28;0.20;;;;;;;;;;4214249;28;20055;-34
2021/12/23 00:31:48;;;;;;;0.43;0.30;;;;;;;;;;4212959;28;20548;-34
2021/12/23 00:33:49;;;;;;;0.55;0.20;;;;;;;;;;4213993;28;20075;-34
2021/12/23 00:35:50;;;;;;;0.20;0.20;;;;;;;;;;4213943;28;20079;-34
2021/12/23 00:37:58;;;;;;;0.30;0.30;;;;;;;;;;4195410;28;20052;-34
2021/12/23 00:39:59;;;;;;;0.60;0.30;;;;;;;;;;4213845;28;20361;-34
2021/12/23 00:42:06;;;;;;;0.50;0.20;;;;;;;;;;4213821;28;20102;-34
2021/12/23 00:44:07;;;;;;;0.50;0.40;;;;;;;;;;4214124;28;20048;-34
2021/12/23 00:46:08;;;;;;;0.50;0.40;;;;;;;;;;4214128;28;20119;-34
2021/12/23 00:48:09;;;;;;;0.30;0.20;;;;;;;;;;4213652;28;20403;-34
2021/12/23 00:50:10;;;;;;;0.60;0.38;;;;;;;;;;4213902;28;20052;-33
2021/12/23 00:52:11;;;;;;;0.38;0.30;;;;;;;;;;4213234;28;20131;-33
2021/12/23 00:54:12;;;;;;;0.30;0.30;;;;;;;;;;4213722;28;20089;-33
2021/12/23 00:56:13;;;;;;;0.40;0.22;;;;;;;;;;4214124;28;20062;-33
2021/12/23 00:58:14;;;;;;;1.10;0.40;;;;;;;;;;4195724;28;20048;-33
2021/12/23 01:00:16;;;;;;;0.52;0.20;;;;;;;;;;4213768;28;20460;-34
2021/12/23 01:02:17;;;;;;;0.25;0.25;;;;;;;;;;4213861;28;20056;-34
2021/12/23 01:04:18;;;;;;;0.38;0.20;;;;;;;;;;4213727;28;20048;-34
2021/12/23 01:06:19;;;;;;;0.28;0.25;;;;;;;;;;4213876;28;20101;-34
2021/12/23 01:08:20;;;;;;;0.30;0.30;;;;;;;;;;4216176;28;20044;-33
2021/12/23 01:10:24;;;;;;;0.47;0.30;;;;;;;;;;4217478;28;20098;-34
2021/12/23 01:12:31;;;;;;;0.35;0.30;;;;;;;;;;4217113;28;20052;-34
2021/12/23 01:14:42;;;;;;;0.35;0.35;;;;;;;;;;4217179;28;20048;-34
2021/12/23 01:16:50;;;;;;;0.82;0.47;;;;;;;;;;4216953;28;20048;-35
2021/12/23 01:18:54;;;;;;;0.28;0.20;;;;;;;;;;4217038;28;20430;-34
2021/12/23 01:21:03;;;;;;;0.70;0.25;;;;;;;;;;4217179;28;20067;-34
2021/12/23 01:23:07;;;;;;;0.50;0.40;;;;;;;;;;4198619;28;20113;-34
2021/12/23 01:25:08;;;;;;;0.20;0.20;;;;;;;;;;4217068;28;20389;-34
2021/12/23 01:27:09;;;;;;;0.20;0.20;;;;;;;;;;4216882;28;20060;-35
2021/12/23 01:29:10;;;;;;;0.43;0.25;;;;;;;;;;4216851;28;20070;-34
2021/12/23 01:31:11;;;;;;;0.75;0.20;;;;;;;;;;4216850;28;20056;-35
2021/12/23 01:33:12;;;;;;;0.40;0.30;;;;;;;;;;4216902;28;20101;-34
2021/12/23 01:35:14;;;;;;;0.50;0.20;;;;;;;;;;4216743;28;20052;-34
2021/12/23 01:37:15;;;;;;;0.30;0.20;;;;;;;;;;4198258;28;20083;-34
2021/12/23 01:39:16;;;;;;;0.13;0.13;;;;;;;;;;4216642;28;20120;-34
2021/12/23 01:41:17;;;;;;;0.35;0.30;;;;;;;;;;4216901;28;20056;-35
2021/12/23 01:43:18;;;;;;;0.28;0.20;;;;;;;;;;4216480;28;20059;-34
2021/12/23 01:45:21;;;;;;;1.10;0.40;;;;;;;;;;4216612;28;20403;-35
2021/12/23 01:47:23;;;;;;;0.40;0.20;;;;;;;;;;4216492;28;20100;-34
2021/12/23 01:49:24;;;;;;;0.20;0.20;;;;;;;;;;4216526;28;20047;-34
2021/12/23 01:51:25;;;;;;;0.28;0.20;;;;;;;;;;4216562;28;20044;-33
2021/12/23 01:53:26;;;;;;;0.15;0.10;;;;;;;;;;4215938;28;20063;-34
2021/12/23 01:55:27;;;;;;;0.52;0.20;;;;;;;;;;4216521;28;20512;-34
2021/12/23 01:57:30;;;;;;;0.50;0.20;;;;;;;;;;4216473;28;20044;-34
2021/12/23 01:59:32;;;;;;;0.28;0.20;;;;;;;;;;4216434;28;20353;-34
2021/12/23 02:01:33;;;;;;;0.65;0.20;;;;;;;;;;4216427;28;20105;-34
2021/12/23 02:03:34;;;;;;;0.45;0.40;;;;;;;;;;4216465;28;20510;-34
2021/12/23 02:05:35;;;;;;;0.20;0.20;;;;;;;;;;4216552;28;20095;-34
2021/12/23 02:07:36;;;;;;;0.30;0.22;;;;;;;;;;4215827;28;20048;-34
2021/12/23 02:09:37;;;;;;;0.13;0.13;;;;;;;;;;4215923;28;20044;-34
2021/12/23 02:11:38;;;;;;;0.50;0.20;;;;;;;;;;4215843;28;20102;-34
2021/12/23 02:13:40;;;;;;;0.75;0.30;;;;;;;;;;4216101;28;20537;-33
2021/12/23 02:15:41;;;;;;;0.32;0.20;;;;;;;;;;4216152;28;20047;-34
2021/12/23 02:17:41;;;;;;;0.52;0.10;;;;;;;;;;4215874;28;20093;-34
2021/12/23 02:19:42;;;;;;;0.40;0.20;;;;;;;;;;4216106;28;20066;-34
2021/12/23 02:21:47;;;;;;;0.30;0.20;;;;;;;;;;4215709;28;20052;-34
2021/12/23 02:23:48;;;;;;;0.20;0.15;;;;;;;;;;4215818;28;20064;-34
2021/12/23 02:25:49;;;;;;;0.35;0.20;;;;;;;;;;4216071;28;20104;-33
2021/12/23 02:27:52;;;;;;;0.60;0.30;;;;;;;;;;4198138;28;20053;-35
2021/12/23 02:29:53;;;;;;;0.10;0.10;;;;;;;;;;4216054;28;20052;-34
2021/12/23 02:31:54;;;;;;;0.85;0.22;;;;;;;;;;4215778;28;20533;-34
2021/12/23 02:33:55;;;;;;;0.10;0.10;;;;;;;;;;4181544;28;20045;-34
2021/12/23 02:35:57;;;;;;;0.22;0.22;;;;;;;;;;4209210;28;20140;-34
2021/12/23 02:37:59;;;;;;;0.50;0.30;;;;;;;;;;4181484;28;20342;-34
2021/12/23 02:40:00;;;;;;;0.22;0.20;;;;;;;;;;4182419;28;20386;-34
2021/12/23 02:42:03;;;;;;;0.25;0.20;;;;;;;;;;4182281;28;20049;-34
2021/12/23 02:44:04;;;;;;;0.30;0.20;;;;;;;;;;4182408;28;20057;-34
2021/12/23 02:46:05;;;;;;;0.38;0.30;;;;;;;;;;4181198;28;20481;-34
2021/12/23 02:48:16;;;;;;;0.30;0.20;;;;;;;;;;4182173;28;20099;-34
2021/12/23 02:50:17;;;;;;;0.32;0.10;;;;;;;;;;4182445;28;20111;-34
2021/12/23 02:52:18;;;;;;;0.20;0.20;;;;;;;;;;4181810;28;20502;-34
2021/12/23 02:54:19;;;;;;;0.40;0.28;;;;;;;;;;4182281;28;20052;-33
2021/12/23 02:56:20;;;;;;;0.30;0.20;;;;;;;;;;4182258;28;20224;-34
2021/12/23 02:58:21;;;;;;;0.47;0.30;;;;;;;;;;4182385;28;20049;-35
2021/12/23 03:00:22;;;;;;;0.25;0.22;;;;;;;;;;4182284;28;20493;-34
2021/12/23 03:02:23;;;;;;;0.85;0.10;;;;;;;;;;4182013;28;20091;-34
2021/12/23 03:04:24;;;;;;;0.28;0.28;;;;;;;;;;4181938;28;20091;-34
2021/12/23 03:06:25;;;;;;;0.20;0.20;;;;;;;;;;4182011;28;20103;-34
2021/12/23 03:08:36;;;;;;;0.57;0.38;;;;;;;;;;4181449;28;20515;-34
2021/12/23 03:10:37;;;;;;;0.63;0.20;;;;;;;;;;4182321;28;20091;-34
2021/12/23 03:12:38;;;;;;;0.30;0.28;;;;;;;;;;4182115;28;20178;-34
2021/12/23 03:14:39;;;;;;;0.30;0.20;;;;;;;;;;4164249;28;20057;-33
2021/12/23 03:16:40;;;;;;;0.28;0.20;;;;;;;;;;4181650;28;20045;-34
2021/12/23 03:18:41;;;;;;;0.35;0.20;;;;;;;;;;4182062;28;20048;-34
2021/12/23 03:20:42;;;;;;;0.15;0.13;;;;;;;;;;4181808;28;20106;-34
2021/12/23 03:22:43;;;;;;;0.35;0.17;;;;;;;;;;4183120;28;20053;-34
2021/12/23 03:24:44;;;;;;;0.22;0.10;;;;;;;;;;4198296;28;20091;-34
2021/12/23 03:26:45;;;;;;;0.20;0.20;;;;;;;;;;4198176;28;20129;-35
2021/12/23 03:28:46;;;;;;;0.38;0.30;;;;;;;;;;4198430;28;20055;-34
2021/12/23 03:30:48;;;;;;;0.30;0.20;;;;;;;;;;4197535;28;20057;-34
2021/12/23 03:32:49;;;;;;;0.32;0.20;;;;;;;;;;4198046;28;20052;-33
2021/12/23 03:34:49;;;;;;;0.32;0.20;;;;;;;;;;4198176;28;20046;-34
2021/12/23 03:36:50;;;;;;;0.17;0.10;;;;;;;;;;4197606;28;20483;-34
2021/12/23 03:38:51;;;;;;;0.10;0.10;;;;;;;;;;4197969;28;20426;-34
2021/12/23 03:40:53;;;;;;;0.17;0.17;;;;;;;;;;4198000;28;20094;-34
2021/12/23 03:42:54;;;;;;;0.25;0.20;;;;;;;;;;4198089;28;20090;-35
2021/12/23 03:44:55;;;;;;;0.30;0.20;;;;;;;;;;4197846;28;20056;-34
2021/12/23 03:46:56;;;;;;;0.20;0.20;;;;;;;;;;4196614;28;20052;-34
2021/12/23 03:48:57;;;;;;;0.20;0.20;;;;;;;;;;4205153;28;20059;-34
2021/12/23 03:50:58;;;;;;;0.30;0.25;;;;;;;;;;4214697;28;20048;-34
2021/12/23 03:53:00;;;;;;;0.35;0.22;;;;;;;;;;4214127;28;20052;-34
2021/12/23 03:55:01;;;;;;;0.47;0.28;;;;;;;;;;4214639;28;20139;-34
2021/12/23 03:57:02;;;;;;;0.43;0.10;;;;;;;;;;4214381;28;20503;-34
2021/12/23 03:59:03;;;;;;;0.28;0.28;;;;;;;;;;4214553;28;20052;-34
2021/12/23 04:01:04;;;;;;;0.10;0.10;;;;;;;;;;4196363;28;20052;-33
2021/12/23 04:03:05;;;;;;;0.20;0.17;;;;;;;;;;4214614;28;20051;-34
2021/12/23 04:05:06;;;;;;;0.10;0.10;;;;;;;;;;4214467;28;20099;-34
2021/12/23 04:07:07;;;;;;;0.35;0.20;;;;;;;;;;4196258;28;20052;-34
2021/12/23 04:09:08;;;;;;;0.17;0.10;;;;;;;;;;4214337;28;20070;-34
2021/12/23 04:11:10;;;;;;;0.15;0.15;;;;;;;;;;4214591;28;20047;-34
2021/12/23 04:13:10;;;;;;;0.20;0.17;;;;;;;;;;4214145;28;20113;-34
2021/12/23 04:15:11;;;;;;;0.13;0.13;;;;;;;;;;4214141;28;20052;-33
2021/12/23 04:17:12;;;;;;;0.20;0.20;;;;;;;;;;4214068;28;20181;-34
2021/12/23 04:19:13;;;;;;;0.10;0.10;;;;;;;;;;4214121;28;20048;-34
2021/12/23 04:21:14;;;;;;;0.10;0.10;;;;;;;;;;4214623;28;20052;-34
2021/12/23 04:23:15;;;;;;;0.30;0.20;;;;;;;;;;4195285;28;20060;-33
2021/12/23 04:25:17;;;;;;;0.10;0.10;;;;;;;;;;4196220;28;20052;-34
2021/12/23 04:27:18;;;;;;;0.20;0.13;;;;;;;;;;4213862;28;20082;-35
2021/12/23 04:29:19;;;;;;;0.30;0.15;;;;;;;;;;4213977;28;20060;-34
2021/12/23 04:31:20;;;;;;;0.52;0.20;;;;;;;;;;4214096;28;20055;-33
2021/12/23 04:33:21;;;;;;;0.38;0.25;;;;;;;;;;4214071;28;20052;-33
2021/12/23 04:35:22;;;;;;;0.10;0.10;;;;;;;;;;4196303;28;20091;-33
2021/12/23 04:37:23;;;;;;;0.20;0.10;;;;;;;;;;4213456;28;20536;-33
2021/12/23 04:39:24;;;;;;;0.10;0.10;;;;;;;;;;4214216;28;20048;-33
2021/12/23 04:41:26;;;;;;;0.10;0.10;;;;;;;;;;4213172;28;20098;-34
2021/12/23 04:43:27;;;;;;;0.20;0.20;;;;;;;;;;4213604;28;20052;-34
2021/12/23 04:45:28;;;;;;;0.20;0.20;;;;;;;;;;4213857;28;20094;-34
2021/12/23 04:47:29;;;;;;;0.22;0.20;;;;;;;;;;4213852;28;20479;-34
2021/12/23 04:49:30;;;;;;;0.20;0.20;;;;;;;;;;4213937;28;20135;-34
2021/12/23 04:51:31;;;;;;;0.10;0.10;;;;;;;;;;4195720;28;20090;-34
2021/12/23 04:53:32;;;;;;;0.22;0.17;;;;;;;;;;4213512;28;20048;-35
2021/12/23 04:55:33;;;;;;;0.10;0.10;;;;;;;;;;4213956;28;20116;-34
2021/12/23 04:57:34;;;;;;;0.22;0.10;;;;;;;;;;4195872;28;20087;-35
2021/12/23 04:59:35;;;;;;;0.43;0.10;;;;;;;;;;4213783;28;20411;-34
2021/12/23 05:01:36;;;;;;;0.25;0.10;;;;;;;;;;4213888;28;20105;-34
2021/12/23 05:03:37;;;;;;;0.20;0.10;;;;;;;;;;4213814;28;20524;-34
2021/12/23 05:05:37;;;;;;;0.20;0.10;;;;;;;;;;4213960;28;20544;-34
2021/12/23 05:07:39;;;;;;;0.20;0.20;;;;;;;;;;4213421;28;20479;-34
2021/12/23 05:09:40;;;;;;;0.88;0.30;;;;;;;;;;4213540;28;20098;-34
2021/12/23 05:11:41;;;;;;;0.10;0.10;;;;;;;;;;4213753;28;20052;-35
2021/12/23 05:13:42;;;;;;;0.20;0.20;;;;;;;;;;4213763;28;20330;-33
2021/12/23 05:15:43;;;;;;;0.20;0.13;;;;;;;;;;4213675;28;20381;-34
2021/12/23 05:17:45;;;;;;;0.10;0.10;;;;;;;;;;4213782;28;20043;-33
2021/12/23 05:19:46;;;;;;;0.20;0.20;;;;;;;;;;4213156;28;20442;-34
2021/12/23 05:21:47;;;;;;;0.30;0.30;;;;;;;;;;4212986;28;20515;-33
2021/12/23 05:23:48;;;;;;;0.20;0.20;;;;;;;;;;4224542;28;20142;-33
2021/12/23 05:25:49;;;;;;;0.20;0.10;;;;;;;;;;4230395;28;20142;-34
2021/12/23 05:27:54;;;;;;;0.30;0.30;;;;;;;;;;4230161;28;20181;-34
2021/12/23 05:29:55;;;;;;;0.10;0.10;;;;;;;;;;4230255;28;20108;-33
2021/12/23 05:31:56;;;;;;;0.10;0.10;;;;;;;;;;4230341;28;20089;-33
2021/12/23 05:33:57;;;;;;;0.25;0.22;;;;;;;;;;4212334;28;20108;-34
2021/12/23 05:35:58;;;;;;;0.20;0.20;;;;;;;;;;4226415;28;20059;-33
2021/12/23 05:37:59;;;;;;;0.25;0.17;;;;;;;;;;4194974;28;20113;-33
2021/12/23 05:40:00;;;;;;;0.10;0.10;;;;;;;;;;4213494;28;20098;-33
2021/12/23 05:42:02;;;;;;;0.20;0.10;;;;;;;;;;4213043;28;20487;-33
2021/12/23 05:44:03;;;;;;;0.10;0.10;;;;;;;;;;4213404;28;20052;-33
2021/12/23 05:46:04;;;;;;;0.30;0.30;;;;;;;;;;4213413;28;20398;-33
2021/12/23 05:48:05;;;;;;;0.30;0.30;;;;;;;;;;4213363;28;20056;-34
2021/12/23 05:50:06;;;;;;;0.20;0.20;;;;;;;;;;4213403;28;20139;-34
2021/12/23 05:52:07;;;;;;;0.10;0.10;;;;;;;;;;4212856;28;20048;-33
2021/12/23 05:54:08;;;;;;;0.15;0.15;;;;;;;;;;4215722;28;20403;-33
2021/12/23 05:56:10;;;;;;;1.75;0.30;;;;;;;;;;4216444;28;20044;-34
2021/12/23 05:58:11;;;;;;;0.15;0.15;;;;;;;;;;4216063;28;20040;-33
2021/12/23 06:00:13;;;;;;;0.47;0.20;;;;;;;;;;4198220;28;20403;-34
2021/12/23 06:02:14;;;;;;;0.30;0.30;;;;;;;;;;4216177;28;20381;-33
2021/12/23 06:04:15;;;;;;;0.10;0.10;;;;;;;;;;4216258;28;20054;-34
2021/12/23 06:06:16;;;;;;;0.20;0.20;;;;;;;;;;4216259;28;20098;-33
2021/12/23 06:08:17;;;;;;;0.20;0.20;;;;;;;;;;4215927;28;20056;-33
2021/12/23 06:10:18;;;;;;;0.47;0.30;;;;;;;;;;4216208;28;20441;-33
2021/12/23 06:12:19;;;;;;;0.40;0.20;;;;;;;;;;4216110;28;20052;-34
2021/12/23 06:14:21;;;;;;;0.15;0.13;;;;;;;;;;4220820;28;20078;-34
2021/12/23 06:16:22;;;;;;;0.20;0.20;;;;;;;;;;4232899;28;20051;-33
2021/12/23 06:18:23;;;;;;;0.20;0.20;;;;;;;;;;4232608;28;20136;-33
2021/12/23 06:20:24;;;;;;;0.93;0.25;;;;;;;;;;4232867;28;20543;-33
2021/12/23 06:22:26;;;;;;;1.38;0.20;;;;;;;;;;4232254;28;20043;-34
2021/12/23 06:24:27;;;;;;;0.25;0.20;;;;;;;;;;4232451;28;20112;-34
2021/12/23 06:26:29;;;;;;;0.30;0.30;;;;;;;;;;4232713;28;20393;-33
2021/12/23 06:28:29;;;;;;;0.20;0.20;;;;;;;;;;4232806;28;20055;-35
2021/12/23 06:30:30;;;;;;;0.20;0.20;;;;;;;;;;4232958;28;20563;-33
2021/12/23 06:32:31;;;;;;;0.10;0.10;;;;;;;;;;4232693;28;20121;-33
2021/12/23 06:34:32;;;;;;;0.32;0.15;;;;;;;;;;4232775;28;20547;-34
2021/12/23 06:36:34;;;;;;;0.20;0.20;;;;;;;;;;4232709;28;20380;-33
2021/12/23 06:38:35;;;;;;;0.10;0.10;;;;;;;;;;4214361;28;20105;-33
2021/12/23 06:40:37;;;;;;;0.15;0.10;;;;;;;;;;4214841;28;20048;-34
2021/12/23 06:42:38;;;;;;;0.10;0.10;;;;;;;;;;4232820;28;20119;-34
2021/12/23 06:44:39;;;;;;;0.38;0.30;;;;;;;;;;4232589;28;20384;-33
2021/12/23 06:46:40;;;;;;;0.13;0.10;;;;;;;;;;4232412;28;20094;-33
2021/12/23 06:48:49;;;;;;;0.20;0.20;;;;;;;;;;4232416;28;20400;-34
2021/12/23 06:50:54;;;;;;;0.10;0.10;;;;;;;;;;4232523;28;20091;-34
2021/12/23 06:52:55;;;;;;;0.10;0.10;;;;;;;;;;4231971;28;20055;-34
2021/12/23 06:54:57;;;;;;;0.10;0.10;;;;;;;;;;4232603;28;20055;-33
2021/12/23 06:56:58;;;;;;;1.33;0.35;;;;;;;;;;4232443;28;20047;-34
2021/12/23 06:58:59;;;;;;;0.82;0.20;;;;;;;;;;4232234;28;20102;-34
2021/12/23 07:01:00;;;;;;;0.20;0.20;;;;;;;;;;4232252;28;20047;-34
2021/12/23 07:03:02;;;;;;;0.20;0.20;;;;;;;;;;4213942;28;20121;-33
2021/12/23 07:05:03;;;;;;;0.10;0.10;;;;;;;;;;4231192;28;20049;-33
2021/12/23 07:07:11;;;;;;;0.10;0.10;;;;;;;;;;4213911;28;20078;-33
2021/12/23 07:09:12;;;;;;;0.10;0.10;;;;;;;;;;4231949;28;20044;-34
2021/12/23 07:11:13;;;;;;;0.30;0.22;;;;;;;;;;4214025;28;20488;-35
2021/12/23 07:13:14;;;;;;;0.20;0.20;;;;;;;;;;4232130;28;20047;-34
2021/12/23 07:15:15;;;;;;;0.10;0.10;;;;;;;;;;4232167;28;20638;-33
2021/12/23 07:17:17;;;;;;;0.10;0.10;;;;;;;;;;4231877;28;20051;-34
2021/12/23 07:19:18;;;;;;;0.13;0.10;;;;;;;;;;4231965;28;20058;-33
2021/12/23 07:21:19;;;;;;;0.10;0.10;;;;;;;;;;4213639;28;20087;-33
2021/12/23 07:23:20;;;;;;;0.40;0.30;;;;;;;;;;4229812;28;20112;-33
2021/12/23 07:25:21;;;;;;;0.50;0.40;;;;;;;;;;4231812;28;20066;-33
2021/12/23 07:27:22;;;;;;;0.20;0.20;;;;;;;;;;4231890;28;20048;-33
2021/12/23 07:29:23;;;;;;;0.38;0.20;;;;;;;;;;4213416;28;20048;-33
2021/12/23 07:31:24;;;;;;;0.20;0.20;;;;;;;;;;4231789;28;20094;-33
2021/12/23 07:33:25;;;;;;;0.28;0.20;;;;;;;;;;4231374;28;20052;-33
2021/12/23 07:35:26;;;;;;;0.60;0.20;;;;;;;;;;4231615;28;20047;-33
2021/12/23 07:37:27;;;;;;;0.52;0.20;;;;;;;;;;4230880;28;20518;-33
2021/12/23 07:39:28;;;;;;;0.17;0.10;;;;;;;;;;4231684;28;20104;-34
2021/12/23 07:41:29;;;;;;;0.40;0.20;;;;;;;;;;4231733;28;20052;-38
2021/12/23 07:45:38;;;;;;;0.10;0.10;;;;;;;;;;4231538;28;20054;-33
2021/12/23 07:47:40;;;;;;;0.25;0.17;;;;;;;;;;4231481;28;20062;-34
2021/12/23 07:49:41;;;;;;;0.20;0.20;;;;;;;;;;4212415;28;20478;-33
2021/12/23 07:51:42;;;;;;;0.10;0.10;;;;;;;;;;4195743;28;20045;-33
2021/12/23 07:53:43;;;;;;;0.20;0.20;;;;;;;;;;4211032;28;20044;-34
2021/12/23 07:55:44;;;;;;;0.10;0.10;;;;;;;;;;4201405;28;20048;-33
2021/12/23 07:57:45;;;;;;;2.78;0.30;;;;;;;;;;4202749;28;20090;-34
2021/12/23 07:59:46;;;;;;;0.10;0.10;;;;;;;;;;4217713;28;20053;-33
2021/12/23 08:01:47;;;;;;;0.22;0.20;;;;;;;;;;4213930;28;20560;-33
2021/12/23 08:03:48;;;;;;;0.28;0.20;;;;;;;;;;4214384;28;20074;-33
2021/12/23 08:05:52;;;;;;;0.40;0.20;;;;;;;;;;4196047;28;20214;-34
2021/12/23 08:07:56;;;;;;;0.30;0.20;;;;;;;;;;4212676;28;20063;-33
2021/12/23 08:09:57;;;;;;;0.63;0.20;;;;;;;;;;4205004;28;20048;-33
2021/12/23 08:11:59;;;;;;;0.20;0.20;;;;;;;;;;4213741;28;20095;-32
2021/12/23 08:14:00;;;;;;;0.50;0.30;;;;;;;;;;4214377;28;20055;-33
2021/12/23 08:16:01;;;;;;;0.95;0.20;;;;;;;;;;4213604;28;20459;-33
2021/12/23 08:18:02;;;;;;;0.52;0.10;;;;;;;;;;4213681;28;20089;-33
2021/12/23 08:20:04;;;;;;;0.15;0.15;;;;;;;;;;4213853;28;20429;-33
2021/12/23 08:22:06;;;;;;;0.13;0.13;;;;;;;;;;4213428;28;20506;-34
2021/12/23 08:24:07;;;;;;;0.20;0.20;;;;;;;;;;4198794;28;20048;-34
2021/12/23 08:26:15;;;;;;;0.30;0.20;;;;;;;;;;4178053;28;20095;-33
2021/12/23 08:28:16;;;;;;;0.22;0.20;;;;;;;;;;4196867;28;20149;-33
2021/12/23 08:30:18;;;;;;;0.10;0.10;;;;;;;;;;4197098;28;20048;-34
2021/12/23 08:32:20;;;;;;;0.20;0.20;;;;;;;;;;4196756;28;20496;-33
2021/12/23 08:34:22;;;;;;;0.85;0.10;;;;;;;;;;4182961;28;20045;-34
2021/12/23 08:36:24;;;;;;;0.10;0.10;;;;;;;;;;4196647;28;20045;-34
2021/12/23 08:38:25;;;;;;;0.13;0.10;;;;;;;;;;4196519;28;20555;-34
2021/12/23 08:40:27;;;;;;;0.20;0.20;;;;;;;;;;4196636;28;20052;-34
2021/12/23 08:42:28;;;;;;;0.20;0.20;;;;;;;;;;4196603;28;20055;-34
2021/12/23 08:44:29;;;;;;;0.75;0.30;;;;;;;;;;4196933;28;20055;-34
2021/12/23 08:46:30;;;;;;;0.28;0.28;;;;;;;;;;4193322;28;20099;-33
2021/12/23 08:48:31;;;;;;;1.63;0.30;;;;;;;;;;4196352;28;20107;-34
2021/12/23 08:50:32;;;;;;;0.60;0.20;;;;;;;;;;4191987;28;20477;-34
2021/12/23 08:52:33;;;;;;;0.40;0.20;;;;;;;;;;4195287;28;20053;-33
2021/12/23 08:54:34;;;;;;;0.63;0.20;;;;;;;;;;4168934;28;20068;-33
2021/12/23 08:56:35;;;;;;;0.35;0.22;;;;;;;;;;4176696;28;20053;-33
2021/12/23 08:58:36;;;;;;;0.20;0.10;;;;;;;;;;4194830;28;20045;-34
2021/12/23 09:00:38;;;;;;;0.38;0.28;;;;;;;;;;4195239;28;20381;-33
2021/12/23 09:02:39;;;;;;;0.20;0.20;;;;;;;;;;4196326;28;20385;-33
2021/12/23 09:04:41;;;;;;;0.40;0.20;;;;;;;;;;4196834;28;20094;-34
2021/12/23 09:06:42;;;;;;;0.20;0.20;;;;;;;;;;4194930;28;20473;-33
2021/12/23 09:08:43;;;;;;;0.20;0.20;;;;;;;;;;4180771;28;20053;-33
2021/12/23 09:10:45;;;;;;;0.10;0.10;;;;;;;;;;4195069;28;20051;-34
2021/12/23 09:12:46;;;;;;;0.20;0.20;;;;;;;;;;4178755;28;20045;-33
2021/12/23 09:14:47;;;;;;;0.30;0.20;;;;;;;;;;4183737;28;20143;-36
2021/12/23 09:16:48;;;;;;;0.25;0.10;;;;;;;;;;4193362;28;20099;-33
2021/12/23 09:18:49;;;;;;;0.43;0.20;;;;;;;;;;4185687;28;20049;-33
2021/12/23 09:20:50;;;;;;;0.20;0.20;;;;;;;;;;4192485;28;20054;-33
2021/12/23 09:22:52;;;;;;;0.10;0.10;;;;;;;;;;4185878;28;20053;-33
2021/12/23 09:24:57;;;;;;;0.40;0.20;;;;;;;;;;4213246;28;20056;-34
2021/12/23 09:27:26;;;;;;;0.17;0.10;;;;;;;;;;4208211;28;20058;-34
2021/12/23 09:34:01;;;;;;;0.20;0.20;;;;;;;;;;4210767;28;20052;-34
2021/12/23 09:36:04;;;;;;;0.32;0.13;;;;;;;;;;4216394;28;20097;-35
2021/12/23 09:38:05;;;;;;;0.40;0.20;;;;;;;;;;4215973;28;20057;-34
2021/12/23 09:40:07;;;;;;;0.10;0.10;;;;;;;;;;4210247;28;20055;-35
2021/12/23 09:42:08;;;;;;;0.55;0.20;;;;;;;;;;4216291;28;20051;-35
2021/12/23 09:44:10;;;;;;;0.40;0.30;;;;;;;;;;4216258;28;20120;-35
2021/12/23 09:46:13;;;;;;;0.20;0.20;;;;;;;;;;4211902;28;20056;-34
2021/12/23 09:48:14;;;;;;;1.20;0.20;;;;;;;;;;4213601;28;20048;-35
2021/12/23 09:50:17;;;;;;;0.52;0.22;;;;;;;;;;4216375;28;20052;-35
2021/12/23 09:52:18;;;;;;;0.30;0.20;;;;;;;;;;4214691;28;20330;-34
2021/12/23 09:54:19;;;;;;;0.10;0.10;;;;;;;;;;4216126;28;20048;-35
2021/12/23 09:56:20;;;;;;;0.40;0.30;;;;;;;;;;4211262;28;20062;-35
2021/12/23 09:58:21;;;;;;;0.20;0.20;;;;;;;;;;4215117;28;20488;-34
2021/12/23 10:00:24;;;;;;;0.20;0.20;;;;;;;;;;4215700;28;20414;-35
2021/12/23 10:02:25;;;;;;;1.10;0.20;;;;;;;;;;4215165;28;20056;-34
2021/12/23 10:04:26;;;;;;;0.22;0.20;;;;;;;;;;4215745;28;20468;-35
2021/12/23 10:06:27;;;;;;;0.80;0.20;;;;;;;;;;4184523;28;20087;-35
2021/12/23 10:08:28;;;;;;;0.82;0.20;;;;;;;;;;4213315;28;20090;-35
2021/12/23 10:10:38;;;;;;;0.15;0.10;;;;;;;;;;4204748;28;20040;-34
2021/12/23 10:13:10;;;;;;;2.83;0.30;;;;;;;;;;4205366;28;20166;-35
2021/12/23 10:27:11;;;;;;;0.40;0.28;;;;;;;;;;4210420;28;20560;-34
2021/12/23 10:30:13;;;;;;;0.88;0.30;;;;;;;;;;4206763;28;20048;-34
2021/12/23 10:31:54;;;;;;;0.10;0.10;;;;;;;;;;4207993;28;20094;-34
2021/12/23 10:38:51;;;;;;;0.40;0.30;;;;;;;;;;4214190;28;20082;-35
2021/12/23 10:40:54;;;;;;;0.13;0.10;;;;;;;;;;4213521;28;20048;-35
2021/12/23 10:42:55;;;;;;;0.65;0.30;;;;;;;;;;4215430;28;20401;-35
2021/12/23 10:44:57;;;;;;;0.20;0.20;;;;;;;;;;4215616;28;20060;-35
2021/12/23 10:46:59;;;;;;;0.90;0.35;;;;;;;;;;4215379;28;20428;-35
2021/12/23 10:49:28;;;;;;;0.45;0.30;;;;;;;;;;4215425;28;20385;-34
2021/12/23 10:51:57;;;;;;;0.50;0.20;;;;;;;;;;4215705;28;20059;-35
2021/12/23 10:54:18;;;;;;;0.50;0.20;;;;;;;;;;4197467;28;20118;-34
2021/12/23 10:58:42;;;;;;;0.10;0.10;;;;;;;;;;4197466;28;20048;-34
2021/12/23 11:00:46;;;;;;;0.30;0.20;;;;;;;;;;4215374;28;20048;-35
2021/12/23 11:03:07;;;;;;;0.30;0.28;;;;;;;;;;4215169;28;20052;-34
2021/12/23 11:05:22;;;;;;;0.20;0.20;;;;;;;;;;4215528;28;20051;-35
2021/12/23 11:07:27;;;;;;;0.10;0.10;;;;;;;;;;4214687;28;20483;-35
2021/12/23 11:28:30;;;;;;;0.17;0.17;;;;;;;;;;4212450;28;20051;-34
2021/12/23 11:37:43;;;;;;;0.20;0.20;;;;;;;;;;4172683;28;20044;-34
2021/12/23 11:40:05;;;;;;;0.57;0.20;;;;;;;;;;4212022;28;20121;-34
2021/12/23 11:42:16;;;;;;;0.20;0.20;;;;;;;;;;4181083;28;20118;-34
2021/12/23 11:44:17;;;;;;;0.47;0.20;;;;;;;;;;4198378;28;20052;-33
2021/12/23 11:46:30;;;;;;;0.63;0.20;;;;;;;;;;4201788;28;20059;-33
2021/12/23 11:48:37;;;;;;;0.22;0.17;;;;;;;;;;4200253;28;20492;-33
2021/12/23 11:50:53;;;;;;;0.30;0.28;;;;;;;;;;4214183;28;20048;-33
2021/12/23 11:52:54;;;;;;;0.40;0.20;;;;;;;;;;4208713;28;20094;-33
2021/12/23 11:54:55;;;;;;;0.10;0.10;;;;;;;;;;4207451;28;20178;-35
2021/12/23 11:57:03;;;;;;;0.20;0.20;;;;;;;;;;4212733;28;20044;-33
2021/12/23 11:59:05;;;;;;;0.20;0.20;;;;;;;;;;4193979;28;20056;-34
2021/12/23 12:01:07;;;;;;;0.20;0.20;;;;;;;;;;4203249;28;20048;-33
2021/12/23 12:03:10;;;;;;;0.20;0.20;;;;;;;;;;4197908;28;20048;-34
2021/12/23 12:05:15;;;;;;;0.28;0.20;;;;;;;;;;4204523;28;20047;-33
2021/12/23 12:07:18;;;;;;;0.17;0.17;;;;;;;;;;4203667;28;20102;-33
2021/12/23 12:09:19;;;;;;;0.93;0.20;;;;;;;;;;4192206;28;20053;-34
2021/12/23 12:11:21;;;;;;;0.40;0.28;;;;;;;;;;4211566;28;20090;-34
2021/12/23 12:13:30;;;;;;;0.50;0.28;;;;;;;;;;4199661;28;20475;-34
2021/12/23 12:15:41;;;;;;;0.30;0.30;;;;;;;;;;4204775;28;20059;-34
2021/12/23 12:17:42;;;;;;;0.55;0.20;;;;;;;;;;4199323;28;20986;-34
2021/12/23 12:20:07;;;;;;;0.30;0.30;;;;;;;;;;4186884;28;20503;-34
2021/12/23 12:22:08;;;;;;;0.30;0.20;;;;;;;;;;4206676;28;20097;-33
2021/12/23 12:24:14;;;;;;;0.20;0.20;;;;;;;;;;4211776;28;20396;-34
2021/12/23 12:26:25;;;;;;;0.20;0.20;;;;;;;;;;4208843;28;20113;-33
2021/12/23 12:28:29;;;;;;;0.20;0.17;;;;;;;;;;4204279;28;20475;-34
2021/12/23 12:30:40;;;;;;;0.20;0.20;;;;;;;;;;4200425;28;20056;-35
2021/12/23 12:32:41;;;;;;;0.70;0.28;;;;;;;;;;4196956;28;20048;-34
2021/12/23 12:34:51;;;;;;;0.40;0.20;;;;;;;;;;4198546;28;20083;-33
2021/12/23 12:36:52;;;;;;;;;;;;;;;;;;4213981;28;20471;-34
2021/12/23 12:38:57;;;;;;;0.30;0.30;;;;;;;;;;4209015;28;19969;-34
2021/12/23 12:40:59;;;;;;;0.20;0.20;;;;;;;;;;4197179;28;20055;-34
2021/12/23 12:43:00;;;;;;;0.20;0.20;;;;;;;;;;4196350;28;20407;-34
2021/12/23 12:45:09;;;;;;;0.20;0.20;;;;;;;;;;4197350;28;20045;-34
2021/12/23 12:47:21;;;;;;;0.28;0.28;;;;;;;;;;4188114;28;20106;-33
2021/12/23 12:49:29;;;;;;;0.43;0.30;;;;;;;;;;4194914;28;20040;-33
2021/12/23 12:51:35;;;;;;;0.50;0.30;;;;;;;;;;4208128;28;20060;-33
2021/12/23 12:54:02;;;;;;;0.20;0.20;;;;;;;;;;4197411;28;20064;-33
2021/12/23 12:56:07;;;;;;;0.30;0.30;;;;;;;;;;4199913;28;20040;-34
2021/12/23 12:58:08;;;;;;;0.17;0.17;;;;;;;;;;4209821;28;20059;-34
2021/12/23 13:00:15;;;;;;;0.20;0.20;;;;;;;;;;4185591;28;20053;-34
2021/12/23 13:02:27;;;;;;;0.30;0.30;;;;;;;;;;4194545;28;20351;-34
2021/12/23 13:04:34;;;;;;;0.55;0.30;;;;;;;;;;4193605;28;20044;-34
2021/12/23 13:06:39;;;;;;;0.35;0.22;;;;;;;;;;4180668;28;20045;-34
2021/12/23 13:09:03;;;;;;;0.20;0.20;;;;;;;;;;4179998;28;20052;-34
2021/12/23 13:11:24;;;;;;;0.40;0.40;;;;;;;;;;4195975;28;20040;-34
2021/12/23 13:13:46;;;;;;;0.40;0.40;;;;;;;;;;4196527;28;20048;-34